createdAt,value
2017-11-09T00:02:06.108Z,88.30
2017-11-09T00:04:46.199Z,81.83
2017-11-09T00:07:20.279Z,92.17
2017-11-09T00:09:54.383Z,91.47
2017-11-09T00:12:28.883Z,95.43
2017-11-09T00:15:03.285Z,87.30
2017-11-09T00:17:40.286Z,90.33
2017-11-09T00:20:14.315Z,82.07
2017-11-09T00:22:47.998Z,86.43
2017-11-09T00:25:21.634Z,84.10
2017-11-09T00:27:55.383Z,86.57
2017-11-09T00:30:29.429Z,96.07
2017-11-09T00:33:03.848Z,89.50
2017-11-09T00:35:37.802Z,81.10
2017-11-09T00:38:12.344Z,87.60
2017-11-09T00:40:47.210Z,85.30
2017-11-09T00:43:21.598Z,84.13
2017-11-09T00:45:55.850Z,82.77
2017-11-09T00:48:30.418Z,83.00
2017-11-09T00:51:04.791Z,93.10
2017-11-09T00:53:39.827Z,85.93
2017-11-09T00:56:14.948Z,89.70
2017-11-09T00:58:49.370Z,83.67
2017-11-09T01:01:23.788Z,80.93
2017-11-09T01:03:58.619Z,94.80
2017-11-09T01:06:32.695Z,91.27
2017-11-09T01:09:07.327Z,82.80
2017-11-09T01:11:42.198Z,85.10
2017-11-09T01:14:16.267Z,75.63
2017-11-09T01:16:50.955Z,81.97
2017-11-09T01:19:25.002Z,83.27
2017-11-09T01:21:58.831Z,88.43
2017-11-09T01:24:32.796Z,86.40
2017-11-09T01:27:06.685Z,86.50
2017-11-09T01:29:40.478Z,89.63
2017-11-09T01:32:14.219Z,76.13
2017-11-09T01:34:47.986Z,83.23
2017-11-09T01:37:23.530Z,83.80
2017-11-09T01:39:57.684Z,78.63
2017-11-09T01:42:31.536Z,87.27
2017-11-09T01:45:06.281Z,86.73
2017-11-09T01:47:40.629Z,80.17
2017-11-09T01:50:14.820Z,86.60
2017-11-09T01:52:48.726Z,83.90
2017-11-09T01:55:22.835Z,82.13
2017-11-09T01:57:57.667Z,74.57
2017-11-09T02:00:32.190Z,83.37
2017-11-09T02:03:05.790Z,134.13
2017-11-09T02:05:40.494Z,79.07
2017-11-09T02:08:15.409Z,87.30
2017-11-09T02:10:50.181Z,99.23
2017-11-09T02:13:23.967Z,86.50
2017-11-09T02:15:58.688Z,88.97
2017-11-09T02:18:32.606Z,78.77
2017-11-09T02:21:06.414Z,80.47
2017-11-09T02:23:40.199Z,80.23
2017-11-09T02:26:15.182Z,75.77
2017-11-09T02:28:49.671Z,80.67
2017-11-09T02:31:23.368Z,82.17
2017-11-09T02:33:58.205Z,87.80
2017-11-09T02:36:32.611Z,85.77
2017-11-09T02:39:07.454Z,82.93
2017-11-09T02:41:41.761Z,87.20
2017-11-09T02:44:16.602Z,80.07
2017-11-09T02:46:51.129Z,86.23
2017-11-09T02:49:25.643Z,81.77
2017-11-09T02:51:59.825Z,80.30
2017-11-09T02:54:34.371Z,88.13
2017-11-09T02:57:09.212Z,82.13
2017-11-09T02:59:43.941Z,84.90
2017-11-09T03:02:18.665Z,90.33
2017-11-09T03:04:54.006Z,88.23
2017-11-09T03:07:28.827Z,86.70
2017-11-09T03:10:03.967Z,99.03
2017-11-09T03:12:39.831Z,96.37
2017-11-09T03:15:14.144Z,85.20
2017-11-09T03:17:48.497Z,103.57
2017-11-09T03:20:22.366Z,90.13
2017-11-09T03:22:57.720Z,98.87
2017-11-09T03:25:32.119Z,99.83
2017-11-09T03:28:06.558Z,106.20
2017-11-09T03:30:41.235Z,90.73
2017-11-09T03:33:15.257Z,100.13
2017-11-09T03:35:49.158Z,97.60
2017-11-09T03:38:23.692Z,103.43
2017-11-09T03:40:57.915Z,110.30
2017-11-09T03:43:31.730Z,109.93
2017-11-09T03:46:05.941Z,96.13
2017-11-09T03:48:40.293Z,105.03
2017-11-09T03:51:14.007Z,103.97
2017-11-09T03:53:47.709Z,117.13
2017-11-09T03:56:21.583Z,104.73
2017-11-09T03:58:55.596Z,112.80
2017-11-09T04:01:29.258Z,105.17
2017-11-09T04:04:03.806Z,119.90
2017-11-09T04:06:37.750Z,111.47
2017-11-09T04:09:11.634Z,110.60
2017-11-09T04:11:46.282Z,102.07
2017-11-09T04:14:20.050Z,117.70
2017-11-09T04:16:55.678Z,112.40
2017-11-09T04:19:30.226Z,115.73
2017-11-09T04:22:04.963Z,122.43
2017-11-09T04:24:40.099Z,116.97
2017-11-09T04:27:14.618Z,106.03
2017-11-09T04:29:49.135Z,123.23
2017-11-09T04:32:23.862Z,118.83
2017-11-09T04:34:58.588Z,112.07
2017-11-09T04:37:33.218Z,114.60
2017-11-09T04:40:07.591Z,112.67
2017-11-09T04:42:41.432Z,126.33
2017-11-09T04:45:16.174Z,121.50
2017-11-09T04:47:50.695Z,117.80
2017-11-09T04:50:25.402Z,113.77
2017-11-09T04:53:00.539Z,114.83
2017-11-09T04:55:34.535Z,115.90
2017-11-09T04:58:09.176Z,127.57
2017-11-09T05:00:43.614Z,113.23
2017-11-09T05:03:18.735Z,114.30
2017-11-09T05:05:52.946Z,111.60
2017-11-09T05:08:27.817Z,120.23
2017-11-09T05:11:02.266Z,120.23
2017-11-09T05:13:35.996Z,113.50
2017-11-09T05:16:09.724Z,122.83
2017-11-09T05:18:44.043Z,124.13
2017-11-09T05:21:18.303Z,119.30
2017-11-09T05:23:52.368Z,119.33
2017-11-09T05:26:27.221Z,126.30
2017-11-09T05:29:02.335Z,127.37
2017-11-09T05:31:37.781Z,133.20
2017-11-09T05:34:13.494Z,122.60
2017-11-09T05:36:48.912Z,121.03
2017-11-09T05:39:24.929Z,114.80
2017-11-09T05:41:59.861Z,113.00
2017-11-09T05:44:34.811Z,135.10
2017-11-09T05:47:10.394Z,126.00
2017-11-09T05:49:45.681Z,124.63
2017-11-09T05:52:20.202Z,160.47
2017-11-09T05:54:55.024Z,128.10
2017-11-09T05:57:29.452Z,111.30
2017-11-09T06:00:03.208Z,120.07
2017-11-09T06:02:37.890Z,121.27
2017-11-09T06:05:12.566Z,126.87
2017-11-09T06:07:46.698Z,124.20
2017-11-09T06:10:21.140Z,120.07
2017-11-09T06:12:55.931Z,121.03
2017-11-09T06:15:30.301Z,113.70
2017-11-09T06:18:05.091Z,117.20
2017-11-09T06:20:40.447Z,109.17
2017-11-09T06:23:14.749Z,112.47
2017-11-09T06:25:49.211Z,117.20
2017-11-09T06:28:23.002Z,107.40
2017-11-09T06:30:57.614Z,114.77
2017-11-09T06:33:32.370Z,101.40
2017-11-09T06:36:07.696Z,116.17
2017-11-09T06:38:42.849Z,111.47
2017-11-09T06:41:17.542Z,110.33
2017-11-09T06:43:51.948Z,119.40
2017-11-09T06:46:26.202Z,120.80
2017-11-09T06:49:00.311Z,98.33
2017-11-09T06:51:34.424Z,112.47
2017-11-09T06:54:10.243Z,107.07
2017-11-09T06:56:45.462Z,111.17
2017-11-09T06:59:20.530Z,111.70
2017-11-09T07:01:54.553Z,106.10
2017-11-09T07:04:28.282Z,113.40
2017-11-09T07:07:02.267Z,103.53
2017-11-09T07:09:36.327Z,118.07
2017-11-09T07:12:11.105Z,115.07
2017-11-09T07:14:46.329Z,106.10
2017-11-09T07:17:20.543Z,126.87
2017-11-09T07:19:54.366Z,121.13
2017-11-09T07:22:28.567Z,120.20
2017-11-09T07:25:03.186Z,105.73
2017-11-09T07:27:37.924Z,112.70
2017-11-09T07:30:12.446Z,122.30
2017-11-09T07:32:47.071Z,101.20
2017-11-09T07:35:21.038Z,103.10
2017-11-09T07:37:54.926Z,122.47
2017-11-09T07:40:29.312Z,104.60
2017-11-09T07:43:04.177Z,115.60
2017-11-09T07:45:38.452Z,102.77
2017-11-09T07:48:12.368Z,107.20
2017-11-09T07:50:46.172Z,103.47
2017-11-09T07:53:20.435Z,106.63
2017-11-09T07:55:54.918Z,106.60
2017-11-09T07:58:29.748Z,99.03
2017-11-09T08:01:04.664Z,105.20
2017-11-09T08:03:39.094Z,105.37
2017-11-09T08:06:13.576Z,105.30
2017-11-09T08:08:48.980Z,102.73
2017-11-09T08:11:23.337Z,99.60
2017-11-09T08:13:57.425Z,98.83
2017-11-09T08:16:31.950Z,91.90
2017-11-09T08:19:06.124Z,103.10
2017-11-09T08:21:41.163Z,101.40
2017-11-09T08:24:17.676Z,100.00
2017-11-09T08:26:57.652Z,94.97
2017-11-09T08:29:34.999Z,93.13
2017-11-09T08:32:12.287Z,96.90
2017-11-09T08:34:46.515Z,104.43
2017-11-09T08:37:20.982Z,92.53
2017-11-09T08:39:55.147Z,98.70
2017-11-09T08:42:29.495Z,101.27
2017-11-09T08:45:03.328Z,112.47
2017-11-09T08:47:38.060Z,106.17
2017-11-09T08:50:12.475Z,108.50
2017-11-09T08:52:48.078Z,102.47
2017-11-09T08:55:23.465Z,114.50
2017-11-09T08:57:59.389Z,105.77
2017-11-09T09:00:33.636Z,101.80
2017-11-09T09:03:07.382Z,107.10
2017-11-09T09:05:42.474Z,103.40
2017-11-09T09:08:17.228Z,97.43
2017-11-09T09:10:51.503Z,100.50
2017-11-09T09:13:25.316Z,100.13
2017-11-09T09:15:59.316Z,100.00
2017-11-09T09:18:34.636Z,117.60
2017-11-09T09:24:19.664Z,113.90
2017-11-09T09:26:54.603Z,90.53
2017-11-09T09:29:30.078Z,100.60
2017-11-09T09:32:05.083Z,84.03
2017-11-09T09:34:45.852Z,88.60
2017-11-09T09:37:25.218Z,87.27
2017-11-09T09:40:02.684Z,79.30
2017-11-09T09:42:36.590Z,88.50
2017-11-09T09:45:10.830Z,82.40
2017-11-09T09:47:45.090Z,76.80
2017-11-09T09:50:18.751Z,83.90
2017-11-09T09:52:52.865Z,78.23
2017-11-09T09:55:27.871Z,89.70
2017-11-09T09:58:02.458Z,70.20
2017-11-09T10:00:36.122Z,65.87
2017-11-09T10:03:10.004Z,70.37
2017-11-09T10:05:43.706Z,71.57
2017-11-09T10:08:18.011Z,66.50
2017-11-09T10:10:53.086Z,69.63
2017-11-09T10:13:27.240Z,75.80
2017-11-09T10:16:02.516Z,71.07
2017-11-09T10:18:37.171Z,66.13
2017-11-09T10:21:12.447Z,66.03
2017-11-09T10:23:46.909Z,77.40
2017-11-09T10:26:21.324Z,62.27
2017-11-09T10:28:55.103Z,77.87
2017-11-09T10:31:28.758Z,75.00
2017-11-09T10:34:03.643Z,71.30
2017-11-09T10:36:37.435Z,76.70
2017-11-09T10:39:11.866Z,75.90
2017-11-09T10:41:47.334Z,86.90
2017-11-09T10:44:21.839Z,77.03
2017-11-09T10:46:56.554Z,74.40
2017-11-09T10:49:31.292Z,88.83
2017-11-09T10:52:05.358Z,90.97
2017-11-09T10:54:39.234Z,92.37
2017-11-09T10:57:14.604Z,95.17
2017-11-09T10:59:49.227Z,83.97
2017-11-09T11:02:24.714Z,97.67
2017-11-09T11:04:58.735Z,93.47
2017-11-09T11:07:34.000Z,116.13
2017-11-09T11:10:08.599Z,90.03
2017-11-09T11:12:42.586Z,105.50
2017-11-09T11:15:16.266Z,95.40
2017-11-09T11:17:50.327Z,95.70
2017-11-09T11:20:25.518Z,96.83
2017-11-09T11:22:59.881Z,88.07
2017-11-09T11:25:34.927Z,102.90
2017-11-09T11:28:10.364Z,96.13
2017-11-09T11:30:44.778Z,93.17
2017-11-09T11:33:18.867Z,100.93
2017-11-09T11:35:53.821Z,94.83
2017-11-09T11:38:28.935Z,100.87
2017-11-09T11:41:02.902Z,102.17
2017-11-09T11:43:37.324Z,99.50
2017-11-09T11:46:12.958Z,94.83
2017-11-09T11:48:48.978Z,107.40
2017-11-09T11:51:23.522Z,100.83
2017-11-09T11:53:59.554Z,110.60
2017-11-09T11:56:34.498Z,105.93
2017-11-09T11:59:09.637Z,99.80
2017-11-09T12:01:44.528Z,100.10
2017-11-09T12:04:25.895Z,96.57
2017-11-09T12:07:02.000Z,95.67
2017-11-09T12:09:36.775Z,90.80
2017-11-09T12:12:14.460Z,89.73
2017-11-09T12:14:49.350Z,93.77
2017-11-09T12:17:24.192Z,91.00
2017-11-09T12:19:58.902Z,93.93
2017-11-09T12:22:34.264Z,97.90
2017-11-09T12:25:09.354Z,103.07
2017-11-09T12:27:43.547Z,88.13
2017-11-09T12:30:18.750Z,96.63
2017-11-09T12:32:54.691Z,92.07
2017-11-09T12:35:29.123Z,91.43
2017-11-09T12:38:04.717Z,99.33
2017-11-09T12:40:39.291Z,84.73
2017-11-09T12:43:14.543Z,81.87
2017-11-09T12:45:49.242Z,91.50
2017-11-09T12:48:23.828Z,86.37
2017-11-09T12:50:58.824Z,87.03
2017-11-09T12:53:33.953Z,91.47
2017-11-09T12:56:08.676Z,85.33
2017-11-09T12:58:43.047Z,76.33
2017-11-09T13:01:17.490Z,79.87
2017-11-09T13:03:52.556Z,88.60
2017-11-09T13:06:26.772Z,89.07
2017-11-09T13:09:01.392Z,91.80
2017-11-09T13:11:36.773Z,88.90
2017-11-09T13:14:12.286Z,90.23
2017-11-09T13:16:47.062Z,81.20
2017-11-09T13:19:37.957Z,73.07
2017-11-09T13:22:13.337Z,74.83
2017-11-09T13:24:47.769Z,78.03
2017-11-09T13:27:22.297Z,78.23
2017-11-09T13:29:57.025Z,75.87
2017-11-09T13:32:31.834Z,73.57
2017-11-09T13:35:06.162Z,77.93
2017-11-09T13:37:40.592Z,89.27
2017-11-09T13:40:15.216Z,74.13
2017-11-09T13:42:49.649Z,80.63
2017-11-09T13:45:24.389Z,94.63
2017-11-09T13:47:58.440Z,74.17
2017-11-09T13:50:32.794Z,86.13
2017-11-09T13:53:08.042Z,79.27
2017-11-09T13:55:42.215Z,84.37
2017-11-09T13:58:17.512Z,74.47
2017-11-09T14:00:54.914Z,92.90
2017-11-09T14:03:29.014Z,81.03
2017-11-09T14:06:03.414Z,80.70
2017-11-09T14:08:39.024Z,93.80
2017-11-09T14:11:13.621Z,80.03
2017-11-09T14:13:48.011Z,71.23
2017-11-09T14:16:23.137Z,91.90
2017-11-09T14:18:57.183Z,89.90
2017-11-09T14:21:31.506Z,88.47
2017-11-09T14:24:06.600Z,86.17
2017-11-09T14:26:40.835Z,88.17
2017-11-09T14:29:14.996Z,67.00
2017-11-09T14:31:49.098Z,84.23
2017-11-09T14:34:23.502Z,79.27
2017-11-09T14:36:58.920Z,84.23
2017-11-09T14:39:33.527Z,96.93
2017-11-09T14:42:08.462Z,87.40
2017-11-09T14:44:44.505Z,88.83
2017-11-09T14:47:21.945Z,83.77
2017-11-09T14:49:57.160Z,80.80
2017-11-09T14:52:31.054Z,79.03
2017-11-09T14:55:05.168Z,77.60
2017-11-09T14:57:39.026Z,76.50
2017-11-09T15:00:14.846Z,99.93
2017-11-09T15:05:31.244Z,73.40
2017-11-09T15:08:05.767Z,71.53
2017-11-09T15:10:40.154Z,70.37
2017-11-09T15:13:16.042Z,70.87
2017-11-09T15:15:54.436Z,64.97
2017-11-09T15:21:12.395Z,64.73
2017-11-09T15:23:48.028Z,64.70
2017-11-09T15:26:23.324Z,76.57
2017-11-09T15:28:57.704Z,67.30
2017-11-09T15:31:32.346Z,60.70
2017-11-09T15:34:07.579Z,65.33
2017-11-09T15:36:42.022Z,73.33
2017-11-09T15:39:17.343Z,73.77
2017-11-09T15:41:51.346Z,218.73
2017-11-09T15:44:25.591Z,73.70
2017-11-09T15:47:01.462Z,70.00
2017-11-09T15:49:35.751Z,69.63
2017-11-09T15:52:09.444Z,62.90
2017-11-09T15:54:44.064Z,62.53
2017-11-09T15:57:18.586Z,64.33
2017-11-09T15:59:53.419Z,59.57
2017-11-09T16:02:29.376Z,69.00
2017-11-09T16:05:03.895Z,66.93
2017-11-09T16:07:38.907Z,71.80
2017-11-09T16:10:14.335Z,71.37
2017-11-09T16:12:48.989Z,73.30
2017-11-09T16:15:23.770Z,70.97
2017-11-09T16:17:58.829Z,95.20
2017-11-09T16:20:33.536Z,68.07
2017-11-09T16:23:07.699Z,76.60
2017-11-09T16:25:42.948Z,72.67
2017-11-09T16:28:17.380Z,74.73
2017-11-09T16:30:52.002Z,70.60
2017-11-09T16:33:27.279Z,74.63
2017-11-09T16:36:02.137Z,71.13
2017-11-09T16:38:36.258Z,84.10
2017-11-09T16:41:10.774Z,83.10
2017-11-09T16:43:45.000Z,73.97
2017-11-09T16:46:19.469Z,85.23
2017-11-09T16:48:53.330Z,75.23
2017-11-09T16:51:27.811Z,81.20
2017-11-09T16:54:02.818Z,81.77
2017-11-09T16:56:38.263Z,86.27
2017-11-09T16:59:13.553Z,79.93
2017-11-09T17:01:48.397Z,90.93
2017-11-09T17:04:23.216Z,75.10
2017-11-09T17:06:57.511Z,81.53
2017-11-09T17:09:32.062Z,87.17
2017-11-09T17:12:06.659Z,78.93
2017-11-09T17:14:40.266Z,89.20
2017-11-09T17:17:14.841Z,90.10
2017-11-09T17:19:48.840Z,81.37
2017-11-09T17:22:22.636Z,98.67
2017-11-09T17:24:57.537Z,86.60
2017-11-09T17:27:32.019Z,80.53
2017-11-09T17:30:06.558Z,94.97
2017-11-09T17:32:41.539Z,79.13
2017-11-09T17:35:18.390Z,81.43
2017-11-09T17:37:52.902Z,91.17
2017-11-09T17:40:27.364Z,87.20
2017-11-09T17:43:01.858Z,80.63
2017-11-09T17:45:35.873Z,98.27
2017-11-09T17:48:10.129Z,90.97
2017-11-09T17:50:44.687Z,88.83
2017-11-09T17:53:22.882Z,85.00
2017-11-09T17:55:56.730Z,90.23
2017-11-09T17:58:30.465Z,86.43
2017-11-09T18:01:05.101Z,91.30
2017-11-09T18:03:39.550Z,86.90
2017-11-09T18:06:13.215Z,86.63
2017-11-09T18:08:47.924Z,92.60
2017-11-09T18:11:23.690Z,93.80
2017-11-09T18:13:58.904Z,87.87
2017-11-09T18:16:32.728Z,94.63
2017-11-09T18:19:07.439Z,95.57
2017-11-09T18:21:41.681Z,93.50
2017-11-09T18:24:16.455Z,91.37
2017-11-09T18:26:51.203Z,90.93
2017-11-09T18:29:26.861Z,83.80
2017-11-09T18:32:00.932Z,87.87
2017-11-09T18:34:35.315Z,92.87
2017-11-09T18:37:10.523Z,98.20
2017-11-09T18:39:45.579Z,111.17
2017-11-09T18:42:20.129Z,88.50
2017-11-09T18:44:55.028Z,93.43
2017-11-09T18:47:30.818Z,91.60
2017-11-09T18:50:05.905Z,95.03
2017-11-09T18:52:40.324Z,92.63
2017-11-09T18:55:15.428Z,114.93
2017-11-09T18:57:49.387Z,100.40
2017-11-09T19:00:24.282Z,108.13
2017-11-09T19:02:58.413Z,92.00
2017-11-09T19:05:33.025Z,141.23
2017-11-09T19:08:08.168Z,98.80
2017-11-09T19:10:43.301Z,90.87
2017-11-09T19:13:18.044Z,109.80
2017-11-09T19:15:52.643Z,94.63
2017-11-09T19:18:27.858Z,95.97
2017-11-09T19:21:02.629Z,101.17
2017-11-09T19:23:42.539Z,100.43
2017-11-09T19:26:18.178Z,95.50
2017-11-09T19:28:53.680Z,107.03
2017-11-09T19:31:28.281Z,108.67
2017-11-09T19:34:02.414Z,97.47
2017-11-09T19:36:37.147Z,90.30
2017-11-09T19:39:11.495Z,92.97
2017-11-09T19:41:46.380Z,79.47
2017-11-09T19:44:20.709Z,93.57
2017-11-09T19:49:35.405Z,97.47
2017-11-09T19:52:10.156Z,88.97
2017-11-09T19:54:44.998Z,78.57
2017-11-09T19:57:19.987Z,86.07
2017-11-09T19:59:55.015Z,84.40
2017-11-09T20:02:29.146Z,85.10
2017-11-09T20:05:04.431Z,83.30
2017-11-09T20:07:40.121Z,89.80
2017-11-09T20:10:15.081Z,75.53
2017-11-09T20:12:51.735Z,81.43
2017-11-09T20:15:29.591Z,74.20
2017-11-09T20:18:07.995Z,76.17
2017-11-09T20:20:44.317Z,75.67
2017-11-09T20:23:21.353Z,83.67
2017-11-09T20:25:55.199Z,82.67
2017-11-09T20:28:29.799Z,80.27
2017-11-09T20:31:04.194Z,71.33
2017-11-09T20:33:40.776Z,67.20
2017-11-09T20:36:16.080Z,79.97
2017-11-09T20:38:54.632Z,73.20
2017-11-09T20:41:30.444Z,80.13
2017-11-09T20:44:04.734Z,68.40
2017-11-09T20:46:38.652Z,72.63
2017-11-09T20:49:12.770Z,75.23
2017-11-09T20:51:48.866Z,67.20
2017-11-09T20:54:24.482Z,71.07
2017-11-09T20:56:58.876Z,63.13
2017-11-09T20:59:33.855Z,70.97
2017-11-09T21:02:07.822Z,66.33
2017-11-09T21:04:42.004Z,75.00
2017-11-09T21:07:16.034Z,67.90
2017-11-09T21:09:50.979Z,61.10
2017-11-09T21:12:26.143Z,73.63
2017-11-09T21:15:01.032Z,67.28
2017-11-09T21:17:36.335Z,66.90
2017-11-09T21:20:10.436Z,65.10
2017-11-09T21:22:44.095Z,70.10
2017-11-09T21:25:17.853Z,71.23
2017-11-09T21:27:51.721Z,61.57
2017-11-09T21:30:25.567Z,67.67
2017-11-09T21:33:00.091Z,63.23
2017-11-09T21:35:33.834Z,66.20
2017-11-09T21:38:07.653Z,71.13
2017-11-09T21:40:41.433Z,64.13
2017-11-09T21:43:15.271Z,67.10
2017-11-09T21:45:50.577Z,82.47
2017-11-09T21:48:25.681Z,59.97
2017-11-09T21:50:59.731Z,67.93
2017-11-09T21:53:34.047Z,56.37
2017-11-09T21:56:08.860Z,66.57
2017-11-09T21:58:44.093Z,69.73
2017-11-09T22:01:17.925Z,67.03
2017-11-09T22:03:52.006Z,63.50
2017-11-09T22:06:25.692Z,61.27
2017-11-09T22:08:59.572Z,58.73
2017-11-09T22:11:33.580Z,55.23
2017-11-09T22:14:07.339Z,61.07
2017-11-09T22:16:41.330Z,60.60
2017-11-09T22:19:15.324Z,55.20
2017-11-09T22:21:49.142Z,50.87
2017-11-09T22:24:22.862Z,51.87
2017-11-09T22:26:56.893Z,50.83
2017-11-09T22:29:31.513Z,52.70
2017-11-09T22:32:05.499Z,52.00
2017-11-09T22:34:40.020Z,51.83
2017-11-09T22:37:14.955Z,47.73
2017-11-09T22:39:48.906Z,47.17
2017-11-09T22:42:23.442Z,43.67
2017-11-09T22:44:57.551Z,43.50
2017-11-09T22:47:32.258Z,40.90
2017-11-09T22:50:06.280Z,47.93
2017-11-09T22:52:39.993Z,43.07
2017-11-09T22:55:13.918Z,46.53
2017-11-09T22:57:47.664Z,45.63
2017-11-09T23:00:21.816Z,43.83
2017-11-09T23:02:56.289Z,37.07
2017-11-09T23:05:30.429Z,41.03
2017-11-09T23:08:04.205Z,37.43
2017-11-09T23:10:39.510Z,34.80
2017-11-09T23:13:14.037Z,32.93
2017-11-09T23:15:48.537Z,33.33
2017-11-09T23:18:22.445Z,37.87
2017-11-09T23:20:56.962Z,34.70
2017-11-09T23:23:31.487Z,34.67
2017-11-09T23:26:05.660Z,39.10
2017-11-09T23:28:40.182Z,42.27
2017-11-09T23:31:14.071Z,36.80
2017-11-09T23:33:47.736Z,39.80
2017-11-09T23:36:21.557Z,40.30
2017-11-09T23:38:55.173Z,36.60
2017-11-09T23:41:29.865Z,44.00
2017-11-09T23:44:03.974Z,48.50
2017-11-09T23:46:37.826Z,43.77
2017-11-09T23:49:11.661Z,39.20
2017-11-09T23:51:45.528Z,39.67
2017-11-09T23:54:19.438Z,38.00
2017-11-09T23:56:53.095Z,42.60
2017-11-09T23:59:28.427Z,41.07
